createdAt,value
2019-03-27T00:00:26.312Z,8.30
2019-03-27T00:02:53.836Z,8.10
2019-03-27T00:05:20.126Z,9.07
2019-03-27T00:07:46.396Z,7.87
2019-03-27T00:10:12.983Z,7.47
2019-03-27T00:12:40.464Z,7.27
2019-03-27T00:15:13.261Z,7.03
2019-03-27T00:17:37.407Z,6.80
2019-03-27T00:20:07.276Z,9.00
2019-03-27T00:22:35.576Z,8.13
2019-03-27T00:25:03.994Z,7.47
2019-03-27T00:27:30.360Z,8.27
2019-03-27T00:29:56.900Z,7.83
2019-03-27T00:32:23.652Z,8.10
2019-03-27T00:34:50.218Z,9.40
2019-03-27T00:37:16.590Z,8.50
2019-03-27T00:39:43.248Z,7.20
2019-03-27T00:42:09.835Z,9.00
2019-03-27T00:44:37.432Z,9.33
2019-03-27T00:47:03.796Z,7.93
2019-03-27T00:49:30.387Z,8.53
2019-03-27T00:51:56.632Z,8.30
2019-03-27T00:54:23.113Z,10.33
2019-03-27T00:56:49.668Z,7.87
2019-03-27T00:59:19.093Z,10.43
2019-03-27T01:01:44.389Z,8.20
2019-03-27T01:04:10.937Z,9.87
2019-03-27T01:06:37.271Z,10.37
2019-03-27T01:09:04.267Z,10.43
2019-03-27T01:11:30.718Z,10.87
2019-03-27T01:13:57.382Z,11.50
2019-03-27T01:16:23.764Z,10.00
2019-03-27T01:18:51.253Z,9.43
2019-03-27T01:21:17.913Z,7.77
2019-03-27T01:23:44.531Z,7.77
2019-03-27T01:26:11.021Z,7.07
2019-03-27T01:28:37.435Z,9.83
2019-03-27T01:31:04.155Z,6.97
2019-03-27T01:33:30.839Z,7.63
2019-03-27T01:35:57.121Z,6.73
2019-03-27T01:38:23.509Z,9.57
2019-03-27T01:40:50.248Z,8.13
2019-03-27T01:43:16.610Z,8.27
2019-03-27T01:45:52.394Z,9.10
2019-03-27T01:48:11.296Z,9.13
2019-03-27T01:50:37.951Z,9.20
2019-03-27T01:53:04.212Z,8.53
2019-03-27T01:55:30.771Z,9.83
2019-03-27T01:57:57.197Z,9.17
2019-03-27T02:00:23.861Z,10.27
2019-03-27T02:02:50.291Z,9.27
2019-03-27T02:05:17.430Z,9.80
2019-03-27T02:07:43.683Z,9.43
2019-03-27T02:10:10.480Z,8.57
2019-03-27T02:12:36.931Z,10.73
2019-03-27T02:15:07.052Z,11.17
2019-03-27T02:17:33.427Z,11.80
2019-03-27T02:20:00.000Z,11.43
2019-03-27T02:22:26.456Z,8.30
2019-03-27T02:24:52.836Z,8.67
2019-03-27T02:27:19.120Z,9.57
2019-03-27T02:29:45.575Z,10.43
2019-03-27T02:32:12.005Z,9.23
2019-03-27T02:34:39.382Z,7.70
2019-03-27T02:37:05.741Z,8.07
2019-03-27T02:39:32.393Z,9.63
2019-03-27T02:41:58.835Z,10.07
2019-03-27T02:44:25.508Z,9.70
2019-03-27T02:46:51.888Z,8.07
2019-03-27T02:49:18.508Z,8.87
2019-03-27T02:51:44.967Z,7.53
2019-03-27T02:54:11.462Z,9.20
2019-03-27T02:56:37.973Z,10.40
2019-03-27T03:02:28.763Z,6.80
2019-03-27T03:04:55.191Z,9.17
2019-03-27T03:07:21.877Z,8.27
2019-03-27T03:09:48.350Z,12.07
2019-03-27T03:12:14.732Z,11.23
2019-03-27T03:14:41.366Z,11.30
2019-03-27T03:17:08.109Z,10.63
2019-03-27T03:19:34.712Z,9.67
2019-03-27T03:22:01.482Z,11.43
2019-03-27T03:24:27.849Z,9.80
2019-03-27T03:26:54.537Z,8.80
2019-03-27T03:29:20.883Z,9.90
2019-03-27T03:31:47.205Z,14.57
2019-03-27T03:34:13.576Z,11.47
2019-03-27T03:36:40.218Z,10.30
2019-03-27T03:39:06.942Z,10.13
2019-03-27T03:41:33.551Z,11.07
2019-03-27T03:44:00.168Z,10.87
2019-03-27T03:46:26.778Z,10.10
2019-03-27T03:48:53.590Z,11.43
2019-03-27T03:51:20.452Z,11.30
2019-03-27T03:53:46.837Z,12.33
2019-03-27T03:56:13.639Z,11.43
2019-03-27T03:58:41.696Z,9.30
2019-03-27T04:01:09.232Z,11.30
2019-03-27T04:03:36.785Z,13.37
2019-03-27T04:06:03.287Z,11.53
2019-03-27T04:08:29.908Z,11.47
2019-03-27T04:10:56.418Z,10.87
2019-03-27T04:13:22.696Z,10.37
2019-03-27T04:15:49.395Z,9.33
2019-03-27T04:18:15.764Z,11.43
2019-03-27T04:20:42.404Z,12.13
2019-03-27T04:23:09.165Z,10.23
2019-03-27T04:26:00.481Z,8.63
2019-03-27T04:28:04.108Z,8.83
2019-03-27T04:30:30.466Z,7.70
2019-03-27T04:32:56.850Z,7.80
2019-03-27T04:35:23.417Z,11.23
2019-03-27T04:37:50.338Z,11.67
2019-03-27T04:40:17.073Z,8.50
2019-03-27T04:42:43.753Z,8.87
2019-03-27T04:45:10.930Z,9.50
2019-03-27T04:47:38.125Z,9.93
2019-03-27T04:50:05.847Z,9.77
2019-03-27T04:52:32.431Z,9.07
2019-03-27T04:54:58.797Z,8.83
2019-03-27T04:57:25.220Z,8.73
2019-03-27T04:59:51.921Z,8.47
2019-03-27T05:02:18.745Z,7.60
2019-03-27T05:04:45.687Z,7.90
2019-03-27T05:07:13.722Z,7.30
2019-03-27T05:09:40.304Z,8.00
2019-03-27T05:12:06.559Z,6.33
2019-03-27T05:14:32.844Z,6.63
2019-03-27T05:16:59.584Z,6.87
2019-03-27T05:19:25.960Z,6.63
2019-03-27T05:21:52.286Z,8.20
2019-03-27T05:24:18.669Z,8.50
2019-03-27T05:26:45.060Z,8.80
2019-03-27T05:29:11.560Z,8.00
2019-03-27T05:31:37.877Z,6.80
2019-03-27T05:34:04.304Z,6.97
2019-03-27T05:36:30.664Z,7.47
2019-03-27T05:38:57.160Z,7.67
2019-03-27T05:41:23.520Z,6.30
2019-03-27T05:43:51.102Z,7.63
2019-03-27T05:46:17.804Z,7.77
2019-03-27T05:48:44.196Z,9.10
2019-03-27T05:51:10.700Z,7.97
2019-03-27T05:53:37.069Z,8.00
2019-03-27T05:56:03.693Z,7.07
2019-03-27T05:58:30.319Z,9.27
2019-03-27T06:00:56.869Z,8.00
2019-03-27T06:03:23.520Z,7.80
2019-03-27T06:05:50.091Z,8.37
2019-03-27T06:08:16.566Z,9.27
2019-03-27T06:10:42.948Z,12.43
2019-03-27T06:13:09.400Z,15.13
2019-03-27T06:15:37.045Z,14.87
2019-03-27T06:18:13.081Z,14.43
2019-03-27T06:20:32.260Z,15.37
2019-03-27T06:22:58.625Z,16.33
2019-03-27T06:25:25.150Z,14.90
2019-03-27T06:27:51.547Z,14.30
2019-03-27T06:30:17.906Z,15.43
2019-03-27T06:32:44.322Z,16.93
2019-03-27T06:35:11.190Z,15.50
2019-03-27T06:37:37.844Z,15.97
2019-03-27T06:40:06.314Z,16.90
2019-03-27T06:42:32.989Z,17.43
2019-03-27T06:44:59.652Z,14.60
2019-03-27T06:47:26.038Z,14.30
2019-03-27T06:49:52.735Z,13.93
2019-03-27T06:52:19.228Z,12.50
2019-03-27T06:54:45.884Z,13.90
2019-03-27T06:57:12.509Z,12.63
2019-03-27T06:59:39.153Z,13.80
2019-03-27T07:02:05.791Z,15.10
2019-03-27T07:04:32.205Z,11.83
2019-03-27T07:06:58.576Z,11.57
2019-03-27T07:09:24.963Z,10.97
2019-03-27T07:11:51.411Z,10.97
2019-03-27T07:18:04.397Z,16.30
2019-03-27T07:20:30.803Z,17.33
2019-03-27T07:22:57.148Z,18.20
2019-03-27T07:25:23.568Z,15.57
2019-03-27T07:27:49.945Z,17.43
2019-03-27T07:30:16.542Z,17.83
2019-03-27T07:32:43.349Z,16.83
2019-03-27T07:35:10.035Z,18.03
2019-03-27T07:37:36.528Z,16.60
2019-03-27T07:40:05.735Z,15.83
2019-03-27T07:42:32.445Z,16.20
2019-03-27T07:44:58.789Z,14.63
2019-03-27T07:47:25.065Z,15.27
2019-03-27T07:49:51.414Z,16.90
2019-03-27T07:52:18.072Z,15.23
2019-03-27T07:54:44.764Z,15.30
2019-03-27T07:57:11.175Z,14.57
2019-03-27T07:59:38.764Z,14.03
2019-03-27T08:02:05.246Z,13.83
2019-03-27T08:04:31.624Z,14.90
2019-03-27T08:06:58.176Z,12.37
2019-03-27T08:09:24.644Z,12.87
2019-03-27T08:11:52.919Z,12.93
2019-03-27T08:14:19.318Z,12.13
2019-03-27T08:16:45.851Z,11.80
2019-03-27T08:19:13.546Z,10.93
2019-03-27T08:21:40.246Z,11.37
2019-03-27T08:24:06.514Z,10.67
2019-03-27T08:26:33.039Z,10.50
2019-03-27T08:28:59.640Z,10.60
2019-03-27T08:31:26.320Z,10.77
2019-03-27T08:33:53.870Z,10.67
2019-03-27T08:36:20.248Z,9.93
2019-03-27T08:38:46.916Z,10.47
2019-03-27T08:41:13.188Z,10.87
2019-03-27T08:43:39.833Z,11.57
2019-03-27T08:46:06.401Z,9.87
2019-03-27T08:48:33.101Z,8.83
2019-03-27T08:50:59.490Z,7.97
2019-03-27T08:53:26.260Z,8.90
2019-03-27T08:55:52.913Z,9.20
2019-03-27T08:58:19.246Z,8.20
2019-03-27T09:00:47.841Z,7.77
2019-03-27T09:03:14.790Z,6.40
2019-03-27T09:05:41.172Z,6.87
2019-03-27T09:08:08.462Z,6.70
2019-03-27T09:10:35.469Z,5.93
2019-03-27T09:13:01.930Z,4.73
2019-03-27T09:15:28.343Z,4.40
2019-03-27T09:17:54.911Z,4.10
2019-03-27T09:20:21.265Z,4.27
2019-03-27T09:22:47.652Z,4.47
2019-03-27T09:25:14.170Z,5.17
2019-03-27T09:27:40.815Z,5.33
2019-03-27T09:30:10.956Z,4.97
2019-03-27T09:32:37.447Z,4.47
2019-03-27T09:35:04.010Z,3.70
2019-03-27T09:37:30.307Z,3.20
2019-03-27T09:39:57.570Z,3.17
2019-03-27T09:42:24.096Z,3.10
2019-03-27T09:44:50.842Z,2.93
2019-03-27T09:47:17.201Z,3.40
2019-03-27T09:49:49.393Z,3.07
2019-03-27T09:52:12.032Z,3.03
2019-03-27T09:54:38.665Z,3.50
2019-03-27T09:57:05.085Z,3.27
2019-03-27T09:59:31.652Z,3.67
2019-03-27T10:01:58.010Z,3.13
2019-03-27T10:04:24.596Z,3.20
2019-03-27T10:06:51.194Z,3.13
2019-03-27T10:09:17.847Z,3.20
2019-03-27T10:11:44.321Z,3.30
2019-03-27T10:14:10.728Z,3.80
2019-03-27T10:16:37.393Z,3.50
2019-03-27T10:19:03.776Z,3.40
2019-03-27T10:21:30.125Z,3.37
2019-03-27T10:23:56.426Z,3.60
2019-03-27T10:26:23.154Z,4.50
2019-03-27T10:28:49.549Z,3.50
2019-03-27T10:31:17.204Z,3.20
2019-03-27T10:33:43.603Z,3.40
2019-03-27T10:36:10.988Z,3.00
2019-03-27T10:38:37.299Z,3.90
2019-03-27T10:41:04.791Z,3.90
2019-03-27T10:43:32.132Z,3.30
2019-03-27T10:45:58.693Z,4.17
2019-03-27T10:48:25.072Z,3.57
2019-03-27T10:50:52.774Z,3.90
2019-03-27T10:53:19.520Z,4.60
2019-03-27T10:55:46.021Z,3.63
2019-03-27T10:58:12.476Z,4.10
2019-03-27T11:00:38.913Z,3.90
2019-03-27T11:03:05.206Z,4.00
2019-03-27T11:05:31.751Z,3.63
2019-03-27T11:07:58.032Z,3.10
2019-03-27T11:10:25.634Z,2.97
2019-03-27T11:12:51.977Z,2.93
2019-03-27T11:15:18.908Z,3.00
2019-03-27T11:17:45.392Z,3.17
2019-03-27T11:20:12.474Z,3.10
2019-03-27T11:22:38.845Z,3.10
2019-03-27T11:25:05.713Z,3.40
2019-03-27T11:27:32.360Z,2.77
2019-03-27T11:29:58.728Z,2.80
2019-03-27T11:32:25.140Z,2.63
2019-03-27T11:34:51.498Z,2.90
2019-03-27T11:37:17.888Z,2.80
2019-03-27T11:39:44.554Z,2.90
2019-03-27T11:42:11.226Z,2.73
2019-03-27T11:44:37.901Z,3.00
2019-03-27T11:47:05.568Z,2.80
2019-03-27T11:49:31.945Z,2.90
2019-03-27T11:51:58.224Z,3.07
2019-03-27T11:54:24.868Z,2.97
2019-03-27T11:56:52.289Z,3.10
2019-03-27T11:59:19.661Z,4.50
2019-03-27T12:01:48.244Z,3.47
2019-03-27T12:04:14.865Z,3.30
2019-03-27T12:06:41.350Z,2.67
2019-03-27T12:09:07.954Z,2.90
2019-03-27T12:11:34.643Z,2.70
2019-03-27T12:14:01.123Z,2.73
2019-03-27T12:16:27.732Z,2.60
2019-03-27T12:18:54.420Z,2.47
2019-03-27T12:21:20.931Z,2.70
2019-03-27T12:23:47.308Z,2.03
2019-03-27T12:26:13.949Z,2.30
2019-03-27T12:28:40.527Z,2.97
2019-03-27T12:31:07.225Z,2.40
2019-03-27T12:33:33.559Z,2.20
2019-03-27T12:36:00.139Z,1.90
2019-03-27T12:38:26.561Z,2.23
2019-03-27T12:40:53.246Z,2.67
2019-03-27T12:43:19.783Z,2.40
2019-03-27T12:45:46.365Z,2.57
2019-03-27T12:48:14.245Z,2.30
2019-03-27T12:50:40.529Z,2.10
2019-03-27T12:53:07.179Z,2.80
2019-03-27T12:55:33.684Z,2.53
2019-03-27T12:58:00.398Z,2.67
2019-03-27T13:00:26.768Z,2.87
2019-03-27T13:02:53.735Z,2.77
2019-03-27T13:05:20.223Z,2.50
2019-03-27T13:07:50.221Z,3.17
2019-03-27T13:10:14.792Z,2.80
2019-03-27T13:12:41.078Z,2.83
2019-03-27T13:15:07.624Z,2.30
2019-03-27T13:17:34.413Z,2.43
2019-03-27T13:20:00.759Z,2.80
2019-03-27T13:22:28.441Z,2.70
2019-03-27T13:24:54.863Z,2.90
2019-03-27T13:27:21.234Z,2.80
2019-03-27T13:29:47.632Z,2.50
2019-03-27T13:32:14.248Z,3.00
2019-03-27T13:34:40.594Z,2.67
2019-03-27T13:37:07.247Z,3.07
2019-03-27T13:39:33.727Z,2.67
2019-03-27T13:42:00.371Z,2.80
2019-03-27T13:44:36.729Z,3.20
2019-03-27T13:46:55.064Z,2.83
2019-03-27T13:49:22.578Z,3.03
2019-03-27T13:51:48.992Z,2.63
2019-03-27T13:54:15.360Z,2.80
2019-03-27T13:56:44.176Z,2.87
2019-03-27T13:59:10.585Z,2.57
2019-03-27T14:01:37.033Z,2.70
2019-03-27T14:04:03.774Z,2.27
2019-03-27T14:06:30.435Z,2.13
2019-03-27T14:08:56.821Z,2.80
2019-03-27T14:11:23.275Z,2.27
2019-03-27T14:13:49.903Z,2.87
2019-03-27T14:16:16.736Z,2.03
2019-03-27T14:18:44.876Z,2.37
2019-03-27T14:21:11.713Z,2.50
2019-03-27T14:23:38.503Z,2.43
2019-03-27T14:26:05.603Z,2.07
2019-03-27T14:28:32.154Z,1.93
2019-03-27T14:31:00.461Z,2.23
2019-03-27T14:33:26.872Z,2.00
2019-03-27T14:35:53.362Z,2.60
2019-03-27T14:38:19.963Z,1.80
2019-03-27T14:40:46.633Z,2.03
2019-03-27T14:43:12.999Z,2.10
2019-03-27T14:45:39.672Z,2.00
2019-03-27T14:48:06.031Z,2.30
2019-03-27T14:50:32.411Z,1.70
2019-03-27T14:52:59.044Z,2.10
2019-03-27T14:55:25.616Z,1.93
2019-03-27T14:57:52.005Z,2.00
2019-03-27T15:00:18.989Z,2.20
2019-03-27T15:02:48.392Z,2.17
2019-03-27T15:05:15.713Z,2.10
2019-03-27T15:07:43.651Z,2.30
2019-03-27T15:10:12.505Z,2.23
2019-03-27T15:12:39.199Z,9.37
2019-03-27T15:15:07.454Z,9.33
2019-03-27T15:17:34.525Z,8.40
2019-03-27T15:20:01.059Z,15.47
2019-03-27T15:22:27.875Z,11.77
2019-03-27T15:24:54.367Z,7.77
2019-03-27T15:27:20.725Z,3.97
2019-03-27T15:29:47.204Z,5.33
2019-03-27T15:32:13.653Z,4.80
2019-03-27T15:34:40.076Z,2.90
2019-03-27T15:37:06.492Z,2.27
2019-03-27T15:39:32.915Z,1.87
2019-03-27T15:41:59.209Z,2.30
2019-03-27T15:44:25.825Z,1.97
2019-03-27T15:46:52.468Z,1.97
2019-03-27T15:49:20.116Z,1.93
2019-03-27T15:51:46.785Z,2.10
2019-03-27T15:54:13.307Z,2.27
2019-03-27T15:56:39.703Z,1.77
2019-03-27T15:59:06.095Z,1.80
2019-03-27T16:01:33.592Z,1.90
2019-03-27T16:04:00.252Z,2.50
2019-03-27T16:06:27.711Z,2.30
2019-03-27T16:08:54.119Z,1.70
2019-03-27T16:11:20.648Z,2.20
2019-03-27T16:13:47.047Z,1.80
2019-03-27T16:16:13.405Z,1.90
2019-03-27T16:18:40.075Z,2.00
2019-03-27T16:21:06.361Z,2.10
2019-03-27T16:23:33.193Z,1.93
2019-03-27T16:25:59.532Z,2.70
2019-03-27T16:28:26.644Z,3.30
2019-03-27T16:30:53.246Z,3.23
2019-03-27T16:33:19.615Z,3.40
2019-03-27T16:35:46.389Z,4.23
2019-03-27T16:38:12.776Z,3.00
2019-03-27T16:40:46.146Z,2.10
2019-03-27T16:43:13.023Z,1.97
2019-03-27T16:45:39.853Z,2.00
2019-03-27T16:48:06.528Z,2.27
2019-03-27T16:50:33.352Z,1.43
2019-03-27T16:53:03.756Z,1.70
2019-03-27T16:55:28.459Z,1.73
2019-03-27T16:57:55.138Z,2.03
2019-03-27T17:00:21.781Z,1.97
2019-03-27T17:02:48.500Z,1.60
2019-03-27T17:05:15.958Z,2.00
2019-03-27T17:07:42.433Z,1.93
2019-03-27T17:10:09.110Z,1.50
2019-03-27T17:12:35.579Z,2.40
2019-03-27T17:15:02.755Z,1.53
2019-03-27T17:17:29.405Z,1.77
2019-03-27T17:19:55.885Z,1.70
2019-03-27T17:22:22.140Z,2.20
2019-03-27T17:24:49.599Z,1.80
2019-03-27T17:27:16.000Z,1.80
2019-03-27T17:29:42.747Z,2.10
2019-03-27T17:32:09.132Z,1.67
2019-03-27T17:34:35.623Z,1.63
2019-03-27T17:37:01.995Z,1.80
2019-03-27T17:39:28.563Z,1.67
2019-03-27T17:41:55.046Z,2.27
2019-03-27T17:44:26.472Z,2.23
2019-03-27T17:46:52.977Z,2.83
2019-03-27T17:49:19.672Z,2.20
2019-03-27T17:51:47.179Z,2.37
2019-03-27T17:54:20.325Z,2.00
2019-03-27T17:56:42.216Z,2.57
2019-03-27T17:59:09.857Z,2.40
2019-03-27T18:01:36.411Z,2.13
2019-03-27T18:04:02.898Z,2.87
2019-03-27T18:06:29.244Z,6.53
2019-03-27T18:08:57.013Z,3.80
2019-03-27T18:11:24.952Z,3.50
2019-03-27T18:13:52.196Z,3.40
2019-03-27T18:16:18.602Z,5.03
2019-03-27T18:18:45.084Z,3.80
2019-03-27T18:21:11.444Z,3.90
2019-03-27T18:23:45.927Z,3.77
2019-03-27T18:26:06.216Z,3.20
2019-03-27T18:28:32.562Z,3.57
2019-03-27T18:30:59.248Z,3.13
2019-03-27T18:33:25.491Z,3.17
2019-03-27T18:35:52.033Z,2.73
2019-03-27T18:38:18.677Z,2.20
2019-03-27T18:40:45.035Z,2.40
2019-03-27T18:43:11.471Z,2.20
2019-03-27T18:45:37.776Z,2.30
2019-03-27T18:48:04.432Z,2.43
2019-03-27T18:50:31.060Z,2.10
2019-03-27T18:52:57.453Z,1.80
2019-03-27T18:55:26.604Z,2.10
2019-03-27T18:57:59.924Z,1.87
2019-03-27T19:00:20.625Z,2.10
2019-03-27T19:02:47.102Z,1.97
2019-03-27T19:05:13.725Z,2.70
2019-03-27T19:07:40.187Z,2.50
2019-03-27T19:10:07.096Z,2.60
2019-03-27T19:12:33.655Z,2.80
2019-03-27T19:15:00.230Z,2.57
2019-03-27T19:17:26.657Z,2.23
2019-03-27T19:19:52.944Z,2.50
2019-03-27T19:22:19.482Z,2.67
2019-03-27T19:24:46.017Z,2.80
2019-03-27T19:27:12.372Z,3.13
2019-03-27T19:29:38.790Z,4.40
2019-03-27T19:32:05.244Z,3.77
2019-03-27T19:34:31.623Z,4.10
2019-03-27T19:36:58.271Z,3.40
2019-03-27T19:39:24.647Z,4.00
2019-03-27T19:41:51.508Z,3.30
2019-03-27T19:44:18.829Z,2.93
2019-03-27T19:46:46.639Z,2.90
2019-03-27T19:49:13.622Z,2.77
2019-03-27T19:51:40.033Z,2.60
2019-03-27T19:54:06.578Z,2.73
2019-03-27T19:56:33.263Z,2.30
2019-03-27T19:58:59.666Z,2.60
2019-03-27T20:01:27.042Z,1.93
2019-03-27T20:03:53.539Z,2.53
2019-03-27T20:06:19.931Z,2.33
2019-03-27T20:08:48.206Z,2.70
2019-03-27T20:11:14.927Z,2.40
2019-03-27T20:13:41.648Z,3.30
2019-03-27T20:16:07.948Z,3.80
2019-03-27T20:18:34.692Z,3.00
2019-03-27T20:21:01.061Z,3.67
2019-03-27T20:23:28.705Z,3.80
2019-03-27T20:25:55.126Z,4.67
2019-03-27T20:28:21.606Z,2.60
2019-03-27T20:30:48.127Z,2.77
2019-03-27T20:33:15.642Z,2.90
2019-03-27T20:35:42.239Z,2.63
2019-03-27T20:38:08.640Z,3.10
2019-03-27T20:40:35.163Z,3.00
2019-03-27T20:43:01.529Z,2.40
2019-03-27T20:45:29.218Z,2.30
2019-03-27T20:47:55.602Z,2.20
2019-03-27T20:50:22.459Z,2.20
2019-03-27T20:52:58.046Z,2.93
2019-03-27T20:55:30.013Z,2.90
2019-03-27T20:57:52.651Z,3.17
2019-03-27T21:00:19.604Z,3.30
2019-03-27T21:02:46.456Z,3.50
2019-03-27T21:05:15.074Z,3.00
2019-03-27T21:07:46.213Z,2.70
2019-03-27T21:10:15.328Z,2.90
2019-03-27T21:13:01.941Z,3.67
2019-03-27T21:15:28.209Z,3.47
2019-03-27T21:17:54.484Z,3.90
2019-03-27T21:20:27.100Z,4.23
2019-03-27T21:22:57.004Z,3.70
2019-03-27T21:25:29.532Z,3.33
2019-03-27T21:28:02.193Z,3.20
2019-03-27T21:30:35.047Z,3.07
2019-03-27T21:33:02.548Z,2.83
2019-03-27T21:35:28.820Z,2.60
2019-03-27T21:37:57.616Z,2.80
2019-03-27T21:40:31.179Z,2.57
2019-03-27T21:43:04.935Z,4.30
2019-03-27T21:45:32.427Z,3.80
2019-03-27T21:47:59.322Z,3.50
2019-03-27T21:50:30.792Z,4.33
2019-03-27T21:53:01.216Z,4.13
2019-03-27T21:55:27.784Z,4.57
2019-03-27T21:57:54.218Z,3.50
2019-03-27T22:00:34.849Z,3.43
2019-03-27T22:03:02.236Z,3.10
2019-03-27T22:05:35.155Z,4.20
2019-03-27T22:08:01.743Z,3.47
2019-03-27T22:10:28.488Z,2.90
2019-03-27T22:12:54.865Z,2.77
2019-03-27T22:15:21.641Z,4.70
2019-03-27T22:17:48.410Z,3.90
2019-03-27T22:20:19.075Z,3.27
2019-03-27T22:22:45.397Z,3.07
2019-03-27T22:25:11.819Z,2.73
2019-03-27T22:27:38.092Z,3.00
2019-03-27T22:30:17.459Z,2.60
2019-03-27T22:32:43.992Z,2.10
2019-03-27T22:35:10.404Z,2.23
2019-03-27T22:37:40.338Z,2.50
2019-03-27T22:40:07.983Z,2.23
2019-03-27T22:42:35.343Z,2.50
2019-03-27T22:45:04.667Z,2.90
2019-03-27T22:47:31.035Z,3.17
2019-03-27T22:49:57.740Z,2.93
2019-03-27T22:52:25.498Z,2.37
2019-03-27T22:54:54.188Z,2.20
2019-03-27T22:57:22.525Z,2.50
2019-03-27T22:59:55.187Z,2.40
2019-03-27T23:02:21.655Z,2.60
2019-03-27T23:04:50.064Z,2.40
2019-03-27T23:07:16.473Z,2.60
2019-03-27T23:09:44.046Z,2.67
2019-03-27T23:12:10.525Z,2.40
2019-03-27T23:14:36.880Z,3.77
2019-03-27T23:17:03.416Z,2.70
2019-03-27T23:19:30.101Z,2.67
2019-03-27T23:21:56.376Z,2.73
2019-03-27T23:24:22.756Z,8.10
2019-03-27T23:26:49.659Z,6.87
2019-03-27T23:29:16.514Z,6.00
2019-03-27T23:31:44.976Z,5.10
2019-03-27T23:34:11.378Z,4.20
2019-03-27T23:36:38.008Z,3.30
2019-03-27T23:39:06.385Z,2.93
2019-03-27T23:41:33.057Z,3.40
2019-03-27T23:44:01.441Z,3.23
2019-03-27T23:46:28.849Z,2.80
2019-03-27T23:48:55.236Z,2.30
2019-03-27T23:51:25.579Z,3.20
2019-03-27T23:53:58.248Z,3.00
2019-03-27T23:56:24.670Z,2.57
2019-03-27T23:58:51.589Z,2.03
